Cherry Creek, Nevada
Current Conditions -  °F | °C
As of 1:53 AM on Thursday 23 Oct 2014 (Local Time) from KELY Reporting Station
Clear Clear  
Wind Chill: 39°   Ceiling: Unl
Heat Index: 45°   Visibility: 10mi
Dew Point: 20°   Wind: 12mph
Humidity: 37%   Direction: 190°S
Pressure: 30.21"   Gusts: NA
Location:  39.5572°N, 115.033°W
Report Text: KELY 230853Z AUTO 19010KT 10SM CLR 07/M07 A3021 RMK AO2 SLP163 T00721067 58002
Loading
Personal Weather Stations






























Interactive Weather Map
Tropical Storm Tracking
New forecast layout! Learn more

10-Day Weather Forecast

Advertisements
Track Severe Weather on mobile